createdAt,value
2023-03-11T00:00:17.003Z,95354.03
2023-03-11T00:02:44.770Z,95337.09
2023-03-11T00:05:15.760Z,95346.03
2023-03-11T00:07:43.370Z,95360.69
2023-03-11T00:10:14.981Z,95366.72
2023-03-11T00:12:42.617Z,95384.13
2023-03-11T00:15:12.657Z,95379.56
2023-03-11T00:17:40.331Z,95397.16
2023-03-11T00:20:09.780Z,95393.59
2023-03-11T00:22:37.329Z,95406.59
2023-03-11T00:25:05.427Z,95376.63
2023-03-11T00:27:33.009Z,95417.38
2023-03-11T00:30:00.639Z,95412.34
2023-03-11T00:32:29.663Z,95430.41
2023-03-11T00:34:57.353Z,95424.72
2023-03-11T00:37:24.969Z,95417.38
2023-03-11T00:39:53.023Z,95432.34
2023-03-11T00:42:20.632Z,95425.50
2023-03-11T00:44:48.293Z,95426.00
2023-03-11T00:47:15.874Z,95439.38
2023-03-11T00:49:44.868Z,95440.81
2023-03-11T00:52:12.448Z,95432.84
2023-03-11T00:54:40.039Z,95409.09
2023-03-11T00:57:07.678Z,95435.13
2023-03-11T00:59:35.417Z,95461.34
2023-03-11T01:02:03.002Z,95464.41
2023-03-11T01:04:31.087Z,95468.00
2023-03-11T01:07:00.164Z,95478.94
2023-03-11T01:09:27.763Z,95472.75
2023-03-11T01:11:55.354Z,95460.84
2023-03-11T01:14:23.038Z,95464.75
2023-03-11T01:16:50.687Z,95475.16
2023-03-11T01:19:18.323Z,95470.28
2023-03-11T01:21:46.011Z,95459.22
2023-03-11T01:24:14.955Z,95474.38
2023-03-11T01:26:42.551Z,95475.50
2023-03-11T01:29:10.161Z,95485.44
2023-03-11T01:31:37.776Z,95493.41
2023-03-11T01:34:05.334Z,95518.66
2023-03-11T01:36:32.964Z,95511.13
2023-03-11T01:39:00.539Z,95507.72
2023-03-11T01:41:29.492Z,95503.63
2023-03-11T01:43:57.569Z,95494.38
2023-03-11T01:46:26.780Z,95503.16
2023-03-11T01:48:55.716Z,95518.63
2023-03-11T01:51:27.109Z,95511.13
2023-03-11T01:53:55.716Z,95506.41
2023-03-11T01:56:23.442Z,95516.16
2023-03-11T01:58:53.655Z,95509.34
2023-03-11T02:01:21.961Z,95506.38
2023-03-11T02:03:50.022Z,95521.34
2023-03-11T02:06:20.052Z,95504.25
2023-03-11T02:08:48.254Z,95520.69
2023-03-11T02:11:18.483Z,95540.53
2023-03-11T02:13:47.357Z,95538.25
2023-03-11T02:16:17.324Z,95534.34
2023-03-11T02:18:45.333Z,95532.03
2023-03-11T02:21:22.008Z,95528.75
2023-03-11T02:23:57.314Z,95562.78
2023-03-11T02:26:28.119Z,95564.41
2023-03-11T02:28:57.361Z,95553.66
2023-03-11T02:31:25.159Z,95566.19
2023-03-11T02:33:54.359Z,95568.59
2023-03-11T02:36:33.439Z,95574.66
2023-03-11T02:39:01.206Z,95576.59
2023-03-11T02:41:28.937Z,95582.44
2023-03-11T02:43:58.528Z,95572.19
2023-03-11T02:46:26.307Z,95589.75
2023-03-11T02:48:55.471Z,95589.25
2023-03-11T02:51:23.060Z,95587.97
2023-03-11T02:53:53.165Z,95594.28
2023-03-11T02:56:21.020Z,95599.50
2023-03-11T02:58:50.183Z,95602.28
2023-03-11T03:01:19.264Z,95600.47
2023-03-11T03:03:46.931Z,95597.06
2023-03-11T03:06:14.650Z,95604.69
2023-03-11T03:08:42.469Z,95608.94
2023-03-11T03:11:10.173Z,95610.88
2023-03-11T03:13:37.803Z,95622.25
2023-03-11T03:16:06.148Z,95611.81
2023-03-11T03:18:35.157Z,95615.22
2023-03-11T03:21:02.759Z,95629.41
2023-03-11T03:23:35.039Z,95635.59
2023-03-11T03:26:02.767Z,95643.38
2023-03-11T03:28:30.395Z,95637.06
2023-03-11T03:30:58.055Z,95645.84
2023-03-11T03:33:25.615Z,95642.28
2023-03-11T03:35:54.647Z,95643.25
2023-03-11T03:38:22.304Z,95638.50
2023-03-11T03:40:50.038Z,95645.47
2023-03-11T03:43:17.657Z,95653.94
2023-03-11T03:45:45.280Z,95643.84
2023-03-11T03:48:12.869Z,95647.09
2023-03-11T03:50:41.031Z,95644.69
2023-03-11T03:53:10.036Z,95647.59
2023-03-11T03:55:37.657Z,95645.94
2023-03-11T03:58:05.259Z,95645.06
2023-03-11T04:00:32.990Z,95661.03
2023-03-11T04:03:00.736Z,95652.75
2023-03-11T04:05:28.519Z,95649.63
2023-03-11T04:07:56.231Z,95652.53
2023-03-11T04:10:25.211Z,95666.72
2023-03-11T04:12:52.840Z,95668.78
2023-03-11T04:15:20.456Z,95681.50
2023-03-11T04:17:48.186Z,95685.38
2023-03-11T04:20:15.759Z,95690.06
2023-03-11T04:22:43.331Z,95683.38
2023-03-11T04:25:11.001Z,95689.84
2023-03-11T04:27:42.640Z,95687.56
2023-03-11T04:30:11.572Z,95695.50
2023-03-11T04:32:39.234Z,95700.88
2023-03-11T04:35:07.726Z,95705.91
2023-03-11T04:37:35.319Z,95680.78
2023-03-11T04:40:04.327Z,95705.22
2023-03-11T04:42:31.950Z,95704.72
2023-03-11T04:45:00.896Z,95700.47
2023-03-11T04:47:29.095Z,95703.38
2023-03-11T04:49:56.825Z,95701.38
2023-03-11T04:52:24.435Z,95720.41
2023-03-11T04:54:52.047Z,95707.53
2023-03-11T04:57:19.649Z,95717.81
2023-03-11T04:59:47.292Z,95724.28
2023-03-11T05:02:16.289Z,95727.53
2023-03-11T05:04:44.377Z,95720.72
2023-03-11T05:07:12.056Z,95730.44
2023-03-11T05:09:39.817Z,95737.41
2023-03-11T05:12:09.707Z,95748.47
2023-03-11T05:14:37.378Z,95748.66
2023-03-11T05:17:05.398Z,95754.78
2023-03-11T05:19:35.589Z,95754.50
2023-03-11T05:22:03.964Z,95746.59
2023-03-11T05:24:31.700Z,95768.06
2023-03-11T05:26:59.590Z,95758.84
2023-03-11T05:29:27.353Z,95764.22
2023-03-11T05:31:55.387Z,95766.66
2023-03-11T05:34:23.412Z,95766.72
2023-03-11T05:36:52.382Z,95775.13
2023-03-11T05:39:19.988Z,95760.78
2023-03-11T05:41:48.078Z,95772.53
2023-03-11T05:44:15.758Z,95780.78
2023-03-11T05:46:43.515Z,95766.41
2023-03-11T05:49:11.134Z,95782.47
2023-03-11T05:51:38.694Z,95786.31
2023-03-11T05:54:11.539Z,95783.72
2023-03-11T05:56:39.348Z,95788.63
2023-03-11T05:59:06.947Z,95786.81
2023-03-11T06:01:34.801Z,95789.72
2023-03-11T06:04:02.744Z,95786.97
2023-03-11T06:06:30.756Z,95789.59
2023-03-11T06:08:58.381Z,95783.41
2023-03-11T06:11:27.581Z,95780.44
2023-03-11T06:13:56.167Z,95789.19
2023-03-11T06:16:24.313Z,95794.41
2023-03-11T06:18:52.426Z,95794.81
2023-03-11T06:21:21.596Z,95809.03
2023-03-11T06:23:49.537Z,95804.63
2023-03-11T06:26:18.702Z,95817.63
2023-03-11T06:28:48.356Z,95819.72
2023-03-11T06:31:17.972Z,95827.94
2023-03-11T06:33:45.660Z,95823.81
2023-03-11T06:36:15.342Z,95819.47
2023-03-11T06:38:43.159Z,95830.38
2023-03-11T06:41:11.477Z,95827.63
2023-03-11T06:43:39.109Z,95833.66
2023-03-11T06:46:11.544Z,95845.84
2023-03-11T06:48:39.340Z,95848.53
2023-03-11T06:51:07.365Z,95833.13
2023-03-11T06:53:34.983Z,95854.84
2023-03-11T06:56:03.593Z,95852.75
2023-03-11T06:58:32.288Z,95858.41
2023-03-11T07:01:02.114Z,95863.16
2023-03-11T07:03:31.097Z,95859.75
2023-03-11T07:05:58.983Z,95872.47
2023-03-11T07:08:26.755Z,95879.00
2023-03-11T07:11:01.893Z,95878.69
2023-03-11T07:13:29.831Z,95887.38
2023-03-11T07:16:04.942Z,95883.56
2023-03-11T07:18:34.932Z,95882.69
2023-03-11T07:21:02.763Z,95891.22
2023-03-11T07:23:30.905Z,95888.44
2023-03-11T07:25:58.612Z,95891.53
2023-03-11T07:28:27.779Z,95894.91
2023-03-11T07:30:56.185Z,95903.78
2023-03-11T07:33:24.725Z,95902.31
2023-03-11T07:35:53.791Z,95905.16
2023-03-11T07:38:21.376Z,95906.34
2023-03-11T07:40:48.980Z,95908.06
2023-03-11T07:43:16.577Z,95917.63
2023-03-11T07:45:44.188Z,95922.47
2023-03-11T07:48:11.899Z,95929.38
2023-03-11T07:50:39.587Z,95916.53
2023-03-11T07:53:08.622Z,95917.22
2023-03-11T07:55:36.404Z,95928.88
2023-03-11T07:58:03.983Z,95946.38
2023-03-11T08:00:31.564Z,95941.09
2023-03-11T08:02:59.163Z,95955.69
2023-03-11T08:05:26.709Z,95957.03
2023-03-11T08:07:54.286Z,95960.44
2023-03-11T08:10:26.506Z,95972.56
2023-03-11T08:12:54.113Z,95975.69
2023-03-11T08:15:21.979Z,95979.56
2023-03-11T08:17:49.566Z,95981.22
2023-03-11T08:20:17.489Z,95987.56
2023-03-11T08:22:57.247Z,95994.25
2023-03-11T08:25:27.473Z,95996.25
2023-03-11T08:27:55.076Z,95997.38
2023-03-11T08:30:23.181Z,96007.13
2023-03-11T08:32:51.145Z,96008.09
2023-03-11T08:35:19.204Z,96011.75
2023-03-11T08:37:46.995Z,96010.81
2023-03-11T08:40:14.853Z,96011.78
2023-03-11T08:42:44.156Z,96016.34
2023-03-11T08:45:12.645Z,96026.81
2023-03-11T08:47:40.363Z,96026.63
2023-03-11T08:50:10.801Z,96042.19
2023-03-11T08:52:38.427Z,96039.47
2023-03-11T08:55:08.821Z,96038.13
2023-03-11T08:57:37.949Z,96047.97
2023-03-11T09:00:11.531Z,96051.09
2023-03-11T09:02:41.673Z,96062.84
2023-03-11T09:05:10.120Z,96057.13
2023-03-11T09:07:37.790Z,96047.91
2023-03-11T09:10:06.025Z,96069.56
2023-03-11T09:12:33.777Z,96072.97
2023-03-11T09:15:02.868Z,96063.88
2023-03-11T09:17:31.793Z,96058.03
2023-03-11T09:19:59.419Z,96071.69
2023-03-11T09:22:27.061Z,96085.31
2023-03-11T09:24:54.691Z,96086.72
2023-03-11T09:27:22.294Z,96086.25
2023-03-11T09:29:49.892Z,96083.81
2023-03-11T09:32:17.568Z,96083.69
2023-03-11T09:34:46.554Z,96083.03
2023-03-11T09:37:14.217Z,96092.69
2023-03-11T09:39:41.826Z,96086.75
2023-03-11T09:42:18.009Z,96097.41
2023-03-11T09:44:51.034Z,96102.09
2023-03-11T09:47:39.817Z,96089.34
2023-03-11T09:50:16.671Z,96106.63
2023-03-11T09:52:47.800Z,96104.25
2023-03-11T09:55:28.302Z,96101.66
2023-03-11T09:57:57.374Z,96097.53
2023-03-11T10:00:25.689Z,96108.34
2023-03-11T10:02:53.730Z,96102.81
2023-03-11T10:05:24.676Z,96108.69
2023-03-11T10:07:56.747Z,96103.25
2023-03-11T10:10:24.885Z,96106.97
2023-03-11T10:13:01.014Z,96101.84
2023-03-11T10:15:39.369Z,96105.28
2023-03-11T10:18:21.395Z,96112.22
2023-03-11T10:20:57.791Z,96114.44
2023-03-11T10:23:27.650Z,96112.78
2023-03-11T10:26:01.828Z,96102.97
2023-03-11T10:28:34.112Z,96105.31
2023-03-11T10:31:07.280Z,96104.69
2023-03-11T10:33:38.860Z,96109.28
2023-03-11T10:36:11.845Z,96111.59
2023-03-11T10:38:46.541Z,96129.00
2023-03-11T10:41:19.182Z,96120.69
2023-03-11T10:43:50.156Z,96133.00
2023-03-11T10:46:20.962Z,96144.34
2023-03-11T10:48:48.619Z,96135.19
2023-03-11T10:51:22.496Z,96134.03
2023-03-11T10:53:52.589Z,96137.13
2023-03-11T10:56:29.460Z,96139.56
2023-03-11T10:58:57.579Z,96139.66
2023-03-11T11:01:25.840Z,96143.78
2023-03-11T11:03:56.403Z,96128.00
2023-03-11T11:06:28.837Z,96132.41
2023-03-11T11:09:08.133Z,96139.78
2023-03-11T11:11:36.531Z,96140.22
2023-03-11T11:14:04.255Z,96142.03
2023-03-11T11:16:34.266Z,96148.53
2023-03-11T11:19:04.775Z,96145.53
2023-03-11T11:21:35.441Z,96142.94
2023-03-11T11:24:21.736Z,96144.47
2023-03-11T11:27:04.828Z,96136.56
2023-03-11T11:29:32.694Z,96136.50
2023-03-11T11:32:19.084Z,96136.56
2023-03-11T11:35:01.338Z,96131.81
2023-03-11T11:37:32.751Z,96138.72
2023-03-11T11:40:11.289Z,96130.81
2023-03-11T11:42:40.570Z,96143.31
2023-03-11T11:45:15.020Z,96144.91
2023-03-11T11:47:45.963Z,96133.09
2023-03-11T11:50:17.960Z,96139.13
2023-03-11T11:52:50.214Z,96139.50
2023-03-11T11:55:21.477Z,96141.50
2023-03-11T11:57:49.394Z,96135.66
2023-03-11T12:00:20.826Z,96138.19
2023-03-11T12:03:03.716Z,96143.53
2023-03-11T12:05:32.737Z,96138.47
2023-03-11T12:08:11.811Z,96143.31
2023-03-11T12:10:43.824Z,96137.44
2023-03-11T12:13:24.868Z,96135.38
2023-03-11T12:15:56.696Z,96130.38
2023-03-11T12:18:27.490Z,96138.00
2023-03-11T12:20:56.793Z,96129.53
2023-03-11T12:23:39.542Z,96132.78
2023-03-11T12:26:19.275Z,96131.84
2023-03-11T12:28:50.840Z,96136.81
2023-03-11T12:31:18.712Z,96127.72
2023-03-11T12:33:54.238Z,96113.41
2023-03-11T12:36:25.372Z,96124.38
2023-03-11T12:38:54.900Z,96127.22
2023-03-11T12:41:36.947Z,96124.03
2023-03-11T12:44:07.217Z,96125.88
2023-03-11T12:47:29.772Z,96131.41
2023-03-11T12:50:35.873Z,96130.03
2023-03-11T12:53:03.889Z,96128.94
2023-03-11T12:55:35.257Z,96121.94
2023-03-11T12:58:37.569Z,96134.56
2023-03-11T13:01:19.344Z,96130.63
2023-03-11T13:03:52.971Z,96128.50
2023-03-11T13:07:03.173Z,96125.88
2023-03-11T13:09:31.695Z,96121.16
2023-03-11T13:12:00.837Z,96116.19
2023-03-11T13:14:31.090Z,96128.22
2023-03-11T13:17:20.076Z,96135.41
2023-03-11T13:19:50.335Z,96138.09
2023-03-11T13:22:44.018Z,96138.47
2023-03-11T13:25:33.062Z,96132.06
2023-03-11T13:28:15.452Z,96142.19
2023-03-11T13:30:47.927Z,96133.06
2023-03-11T13:33:23.413Z,96135.31
2023-03-11T13:36:04.010Z,96142.50
2023-03-11T13:38:41.128Z,96146.41
2023-03-11T13:41:15.843Z,96152.38
2023-03-11T13:43:48.839Z,96150.53
2023-03-11T13:46:27.361Z,96168.34
2023-03-11T13:49:03.013Z,96171.16
2023-03-11T13:51:36.945Z,96181.13
2023-03-11T13:54:06.836Z,96171.16
2023-03-11T13:56:40.946Z,96173.84
2023-03-11T13:59:19.656Z,96182.03
2023-03-11T14:01:51.716Z,96182.94
2023-03-11T14:04:21.857Z,96191.97
2023-03-11T14:06:58.695Z,96163.19
2023-03-11T14:09:28.666Z,96187.44
2023-03-11T14:11:59.619Z,96190.03
2023-03-11T14:14:43.858Z,96190.63
2023-03-11T14:17:15.576Z,96208.91
2023-03-11T14:19:43.386Z,96209.41
2023-03-11T14:22:11.674Z,96202.75
2023-03-11T14:24:39.779Z,96204.69
2023-03-11T14:27:09.870Z,96213.97
2023-03-11T14:29:40.504Z,96209.56
2023-03-11T14:32:27.508Z,96221.19
2023-03-11T14:34:55.325Z,96224.69
2023-03-11T14:37:28.518Z,96226.19
2023-03-11T14:39:56.109Z,96235.84
2023-03-11T14:42:26.604Z,96224.38
2023-03-11T14:45:01.705Z,96233.63
2023-03-11T14:47:34.863Z,96233.78
2023-03-11T14:50:03.838Z,96228.66
2023-03-11T14:52:35.510Z,96226.84
2023-03-11T14:55:04.011Z,96240.56
2023-03-11T14:57:37.814Z,96232.97
2023-03-11T15:00:12.178Z,96227.97
2023-03-11T15:02:44.812Z,96240.06
2023-03-11T15:05:19.280Z,96235.06
2023-03-11T15:07:48.712Z,96237.81
2023-03-11T15:10:16.552Z,96238.84
2023-03-11T15:12:45.833Z,96239.69
2023-03-11T15:15:26.975Z,96246.63
2023-03-11T15:17:56.099Z,96248.78
2023-03-11T15:20:26.037Z,96238.34
2023-03-11T15:22:58.331Z,96249.09
2023-03-11T15:25:25.988Z,96247.28
2023-03-11T15:27:53.601Z,96247.53
2023-03-11T15:30:24.242Z,96249.00
2023-03-11T15:32:52.462Z,96249.16
2023-03-11T15:35:22.173Z,96248.72
2023-03-11T15:37:51.247Z,96263.19
2023-03-11T15:40:35.361Z,96260.22
2023-03-11T15:43:21.523Z,96259.91
2023-03-11T15:45:51.319Z,96261.53
2023-03-11T15:48:18.927Z,96255.19
2023-03-11T15:50:53.778Z,96263.09
2023-03-11T15:53:22.422Z,96266.56
2023-03-11T15:55:50.264Z,96271.00
2023-03-11T15:58:19.701Z,96268.81
2023-03-11T16:00:50.359Z,96267.16
2023-03-11T16:03:18.730Z,96276.78
2023-03-11T16:05:46.679Z,96271.75
2023-03-11T16:08:14.419Z,96276.75
2023-03-11T16:10:42.575Z,96275.13
2023-03-11T16:13:11.426Z,96284.28
2023-03-11T16:15:39.343Z,96279.50
2023-03-11T16:18:09.124Z,96284.72
2023-03-11T16:20:40.085Z,96282.69
2023-03-11T16:23:09.002Z,96289.41
2023-03-11T16:25:39.452Z,96292.31
2023-03-11T16:28:07.669Z,96290.41
2023-03-11T16:30:36.332Z,96296.03
2023-03-11T16:33:05.172Z,96286.59
2023-03-11T16:35:34.534Z,96298.25
2023-03-11T16:38:02.282Z,96291.00
2023-03-11T16:40:30.385Z,96296.06
2023-03-11T16:43:02.507Z,96302.78
2023-03-11T16:45:30.295Z,96290.31
2023-03-11T16:47:58.032Z,96309.63
2023-03-11T16:50:26.202Z,96316.53
2023-03-11T16:52:56.266Z,96326.66
2023-03-11T16:55:24.133Z,96327.34
2023-03-11T16:57:51.807Z,96339.28
2023-03-11T17:00:19.649Z,96335.31
2023-03-11T17:02:47.411Z,96334.78
2023-03-11T17:05:15.166Z,96343.72
2023-03-11T17:07:42.919Z,96347.53
2023-03-11T17:10:13.417Z,96344.53
2023-03-11T17:12:41.124Z,96351.56
2023-03-11T17:15:09.408Z,96350.19
2023-03-11T17:17:37.090Z,96357.34
2023-03-11T17:20:07.044Z,96357.63
2023-03-11T17:22:34.708Z,96361.44
2023-03-11T17:25:02.882Z,96365.56
2023-03-11T17:27:33.184Z,96363.09
2023-03-11T17:30:00.969Z,96367.22
2023-03-11T17:32:29.268Z,96358.44
2023-03-11T17:34:57.057Z,96377.91
2023-03-11T17:37:24.812Z,96377.38
2023-03-11T17:39:52.512Z,96379.03
2023-03-11T17:42:20.208Z,96389.75
2023-03-11T17:44:52.007Z,96381.38
2023-03-11T17:47:21.367Z,96365.06
2023-03-11T17:49:49.549Z,96389.06
2023-03-11T17:52:17.229Z,96380.00
2023-03-11T17:54:45.469Z,96379.47
2023-03-11T17:57:13.044Z,96397.69
2023-03-11T17:59:40.734Z,96408.22
2023-03-11T18:02:14.075Z,96417.81
2023-03-11T18:04:45.883Z,96423.44
2023-03-11T18:07:13.556Z,96419.41
2023-03-11T18:09:41.316Z,96410.91
2023-03-11T18:12:09.032Z,96421.50
2023-03-11T18:14:37.522Z,96426.03
2023-03-11T18:17:05.427Z,96419.88
2023-03-11T18:19:34.674Z,96427.09
2023-03-11T18:22:02.282Z,96441.09
2023-03-11T18:24:30.121Z,96439.28
2023-03-11T18:26:57.813Z,96443.53
2023-03-11T18:29:25.459Z,96437.25
2023-03-11T18:31:53.215Z,96436.44
2023-03-11T18:34:20.977Z,96442.19
2023-03-11T18:36:50.179Z,96444.94
2023-03-11T18:39:17.853Z,96446.84
2023-03-11T18:41:45.507Z,96456.84
2023-03-11T18:44:13.100Z,96456.44
2023-03-11T18:46:42.353Z,96462.72
2023-03-11T18:49:12.898Z,96454.91
2023-03-11T18:51:41.039Z,96465.75
2023-03-11T18:54:11.245Z,96456.16
2023-03-11T18:56:38.871Z,96452.34
2023-03-11T18:59:07.799Z,96449.72
2023-03-11T19:01:38.737Z,96457.25
2023-03-11T19:04:06.806Z,96450.97
2023-03-11T19:06:34.519Z,96467.97
2023-03-11T19:09:02.112Z,96459.34
2023-03-11T19:11:31.336Z,96450.44
2023-03-11T19:14:00.040Z,96463.84
2023-03-11T19:16:27.919Z,96474.13
2023-03-11T19:18:56.149Z,96458.38
2023-03-11T19:21:25.870Z,96473.56
2023-03-11T19:23:55.244Z,96487.94
2023-03-11T19:26:33.882Z,96484.75
2023-03-11T19:29:16.184Z,96485.59
2023-03-11T19:31:45.286Z,96479.81
2023-03-11T19:34:13.227Z,96484.47
2023-03-11T19:36:40.908Z,96470.91
2023-03-11T19:39:08.811Z,96476.25
2023-03-11T19:41:36.532Z,96482.78
2023-03-11T19:44:04.323Z,96485.50
2023-03-11T19:46:34.693Z,96489.47
2023-03-11T19:49:02.687Z,96475.91
2023-03-11T19:51:38.727Z,96482.44
2023-03-11T19:54:16.228Z,96471.06
2023-03-11T19:56:43.923Z,96479.28
2023-03-11T19:59:11.694Z,96474.88
2023-03-11T20:01:42.247Z,96484.09
2023-03-11T20:04:10.790Z,96470.44
2023-03-11T20:06:38.650Z,96480.81
2023-03-11T20:09:06.985Z,96481.88
2023-03-11T20:11:34.692Z,96492.63
2023-03-11T20:14:02.268Z,96485.59
2023-03-11T20:16:29.883Z,96489.28
2023-03-11T20:18:59.222Z,96494.66
2023-03-11T20:21:26.827Z,96481.50
2023-03-11T20:23:55.004Z,96504.69
2023-03-11T20:26:22.637Z,96497.28
2023-03-11T20:28:50.730Z,96499.16
2023-03-11T20:31:20.942Z,96503.22
2023-03-11T20:33:49.678Z,96499.13
2023-03-11T20:36:21.062Z,96482.28
2023-03-11T20:38:49.471Z,96501.28
2023-03-11T20:41:17.401Z,96498.25
2023-03-11T20:43:45.527Z,96500.69
2023-03-11T20:46:13.441Z,96500.94
2023-03-11T20:48:41.229Z,96490.69
2023-03-11T20:51:11.350Z,96502.03
2023-03-11T20:53:40.570Z,96502.84
2023-03-11T20:56:10.718Z,96506.38
2023-03-11T20:58:38.586Z,96508.19
2023-03-11T21:01:12.597Z,96508.53
2023-03-11T21:03:40.358Z,96515.97
2023-03-11T21:06:15.280Z,96500.88
2023-03-11T21:08:44.586Z,96522.31
2023-03-11T21:11:12.316Z,96510.88
2023-03-11T21:13:40.218Z,96521.25
2023-03-11T21:16:08.810Z,96534.34
2023-03-11T21:18:36.730Z,96529.28
2023-03-11T21:21:08.372Z,96527.41
2023-03-11T21:23:36.144Z,96535.75
2023-03-11T21:26:05.936Z,96530.69
2023-03-11T21:28:34.493Z,96533.28
2023-03-11T21:31:03.395Z,96537.91
2023-03-11T21:33:31.818Z,96542.47
2023-03-11T21:36:00.678Z,96540.00
2023-03-11T21:38:29.298Z,96546.13
2023-03-11T21:41:08.157Z,96543.44
2023-03-11T21:43:36.438Z,96543.06
2023-03-11T21:46:04.431Z,96541.53
2023-03-11T21:48:32.192Z,96547.91
2023-03-11T21:51:00.283Z,96553.28
2023-03-11T21:53:30.537Z,96541.41
2023-03-11T21:55:59.717Z,96543.28
2023-03-11T21:58:29.005Z,96550.25
2023-03-11T22:00:56.851Z,96545.41
2023-03-11T22:03:24.865Z,96547.63
2023-03-11T22:05:57.065Z,96551.16
2023-03-11T22:08:24.949Z,96547.28
2023-03-11T22:10:52.762Z,96549.75
2023-03-11T22:13:20.577Z,96545.50
2023-03-11T22:15:49.736Z,96555.41
2023-03-11T22:18:17.499Z,96543.84
2023-03-11T22:20:45.462Z,96550.06
2023-03-11T22:23:13.103Z,96558.19
2023-03-11T22:25:40.750Z,96555.47
2023-03-11T22:28:10.377Z,96557.22
2023-03-11T22:30:37.977Z,96568.16
2023-03-11T22:33:07.005Z,96559.59
2023-03-11T22:35:34.745Z,96561.13
2023-03-11T22:38:02.742Z,96568.28
2023-03-11T22:40:30.430Z,96568.00
2023-03-11T22:42:58.194Z,96566.56
2023-03-11T22:45:26.056Z,96569.47
2023-03-11T22:47:54.889Z,96564.63
2023-03-11T22:50:23.896Z,96572.16
2023-03-11T22:52:51.549Z,96576.31
2023-03-11T22:55:19.578Z,96580.47
2023-03-11T22:57:47.207Z,96575.88
2023-03-11T23:00:18.654Z,96579.63
2023-03-11T23:02:46.757Z,96579.63
2023-03-11T23:05:15.842Z,96585.50
2023-03-11T23:07:44.869Z,96588.53
2023-03-11T23:10:14.240Z,96591.75
2023-03-11T23:12:42.803Z,96593.44
2023-03-11T23:15:12.854Z,96596.47
2023-03-11T23:17:40.813Z,96583.75
2023-03-11T23:20:11.884Z,96591.16
2023-03-11T23:22:40.780Z,96590.56
2023-03-11T23:25:12.715Z,96599.06
2023-03-11T23:27:42.017Z,96585.19
2023-03-11T23:30:11.481Z,96599.34
2023-03-11T23:32:39.315Z,96600.78
2023-03-11T23:35:07.929Z,96601.81
2023-03-11T23:37:35.689Z,96596.69
2023-03-11T23:40:04.951Z,96610.88
2023-03-11T23:42:35.960Z,96615.13
2023-03-11T23:45:04.119Z,96613.69
2023-03-11T23:47:31.788Z,96609.09
2023-03-11T23:49:59.617Z,96616.78
2023-03-11T23:52:27.365Z,96615.13
2023-03-11T23:54:55.017Z,96606.66
2023-03-11T23:57:22.614Z,96611.91
2023-03-11T23:59:51.570Z,96613.06
